createdAt,value
2023-03-15T00:00:07.566Z,10.75
2023-03-15T00:00:29.629Z,10.83
2023-03-15T00:01:03.583Z,10.82
2023-03-15T00:01:32.468Z,10.88
2023-03-15T00:02:00.574Z,10.76
2023-03-15T00:02:54.628Z,10.87
2023-03-15T00:03:20.314Z,10.38
2023-03-15T00:03:43.631Z,10.91
2023-03-15T00:04:12.409Z,10.76
2023-03-15T00:04:49.404Z,10.91
2023-03-15T00:05:16.252Z,10.92
2023-03-15T00:06:19.509Z,10.59
2023-03-15T00:06:47.689Z,10.69
2023-03-15T00:07:19.015Z,10.86
2023-03-15T00:08:05.566Z,10.92
2023-03-15T00:08:55.329Z,10.88
2023-03-15T00:09:21.538Z,11.00
2023-03-15T00:09:49.570Z,11.00
2023-03-15T00:10:18.130Z,10.96
2023-03-15T00:10:47.024Z,10.90
2023-03-15T00:11:13.955Z,10.94
2023-03-15T00:11:38.444Z,10.89
2023-03-15T00:12:13.838Z,10.94
2023-03-15T00:12:39.653Z,11.03
2023-03-15T00:13:14.992Z,11.03
2023-03-15T00:13:55.244Z,10.94
2023-03-15T00:14:22.432Z,11.05
2023-03-15T00:14:48.419Z,10.86
2023-03-15T00:15:17.028Z,11.00
2023-03-15T00:15:46.188Z,10.86
2023-03-15T00:16:11.052Z,11.06
2023-03-15T00:16:34.459Z,11.02
2023-03-15T00:17:16.038Z,11.02
2023-03-15T00:18:00.995Z,11.00
2023-03-15T00:19:44.911Z,10.98
2023-03-15T00:20:32.394Z,10.92
2023-03-15T00:21:13.257Z,10.45
2023-03-15T00:21:35.180Z,10.72
2023-03-15T00:21:57.984Z,10.70
2023-03-15T00:22:19.583Z,10.71
2023-03-15T00:22:41.427Z,10.73
2023-03-15T00:23:03.116Z,10.73
2023-03-15T00:23:26.438Z,10.75
2023-03-15T00:23:48.520Z,10.79
2023-03-15T00:24:11.130Z,10.73
2023-03-15T00:24:32.757Z,10.81
2023-03-15T00:24:55.570Z,10.52
2023-03-15T00:25:17.186Z,10.54
2023-03-15T00:25:38.857Z,10.54
2023-03-15T00:26:00.491Z,10.55
2023-03-15T00:26:24.620Z,10.64
2023-03-15T00:26:47.581Z,10.58
2023-03-15T00:27:09.617Z,10.71
2023-03-15T00:27:32.689Z,10.63
2023-03-15T00:27:54.438Z,10.73
2023-03-15T00:28:17.501Z,10.62
2023-03-15T00:28:40.796Z,10.67
2023-03-15T00:29:02.511Z,10.75
2023-03-15T00:29:26.827Z,10.69
2023-03-15T00:29:50.155Z,10.76
2023-03-15T00:30:12.357Z,10.77
2023-03-15T00:30:34.418Z,10.75
2023-03-15T00:31:07.285Z,10.79
2023-03-15T00:31:30.801Z,10.76
2023-03-15T00:31:53.480Z,10.85
2023-03-15T00:32:16.746Z,10.87
2023-03-15T00:32:39.386Z,10.94
2023-03-15T00:33:01.070Z,10.95
2023-03-15T00:33:22.699Z,10.89
2023-03-15T00:33:45.150Z,10.93
2023-03-15T00:34:07.750Z,10.82
2023-03-15T00:34:29.393Z,10.93
2023-03-15T00:34:54.630Z,10.96
2023-03-15T00:35:18.315Z,10.95
2023-03-15T00:35:42.373Z,10.96
2023-03-15T00:36:05.907Z,10.99
2023-03-15T00:36:27.593Z,11.02
2023-03-15T00:36:53.822Z,11.03
2023-03-15T00:37:16.714Z,11.07
2023-03-15T00:37:38.877Z,11.12
2023-03-15T00:38:00.794Z,11.07
2023-03-15T00:38:22.473Z,11.04
2023-03-15T00:38:45.177Z,11.02
2023-03-15T00:39:07.093Z,11.02
2023-03-15T00:39:28.726Z,10.95
2023-03-15T00:39:50.378Z,10.92
2023-03-15T00:40:12.959Z,10.90
2023-03-15T00:40:40.460Z,10.81
2023-03-15T00:41:05.516Z,10.89
2023-03-15T00:41:27.122Z,10.87
2023-03-15T00:41:48.973Z,10.87
2023-03-15T00:42:11.923Z,10.91
2023-03-15T00:42:35.975Z,10.81
2023-03-15T00:42:58.229Z,10.89
2023-03-15T00:43:19.797Z,10.91
2023-03-15T00:43:46.345Z,10.91
2023-03-15T00:44:08.385Z,10.95
2023-03-15T00:44:31.450Z,10.93
2023-03-15T00:44:54.544Z,10.97
2023-03-15T00:45:17.229Z,11.01
2023-03-15T00:45:39.967Z,10.92
2023-03-15T00:46:02.317Z,10.93
2023-03-15T00:46:24.031Z,10.97
2023-03-15T00:46:45.689Z,10.99
2023-03-15T00:47:08.590Z,10.97
2023-03-15T00:47:31.410Z,11.04
2023-03-15T00:47:55.053Z,11.01
2023-03-15T00:48:16.772Z,10.91
2023-03-15T00:48:40.768Z,10.94
2023-03-15T00:49:04.235Z,11.01
2023-03-15T00:49:25.932Z,11.03
2023-03-15T00:49:48.154Z,11.03
2023-03-15T00:50:11.423Z,10.97
2023-03-15T00:50:33.124Z,11.11
2023-03-15T00:51:02.389Z,11.17
2023-03-15T00:51:24.563Z,11.14
2023-03-15T00:51:48.325Z,11.13
2023-03-15T00:52:12.538Z,11.14
2023-03-15T00:52:35.911Z,11.18
2023-03-15T00:52:57.686Z,11.11
2023-03-15T00:53:22.559Z,11.14
2023-03-15T00:53:46.299Z,11.04
2023-03-15T00:54:07.872Z,11.07
2023-03-15T00:54:29.636Z,11.15
2023-03-15T00:54:54.921Z,11.19
2023-03-15T00:55:19.191Z,11.15
2023-03-15T00:55:43.068Z,11.25
2023-03-15T00:56:06.504Z,11.24
2023-03-15T00:56:30.194Z,11.10
2023-03-15T00:56:53.915Z,10.93
2023-03-15T00:57:15.606Z,10.79
2023-03-15T00:57:37.180Z,10.80
2023-03-15T00:58:00.009Z,10.86
2023-03-15T00:58:24.274Z,10.70
2023-03-15T00:58:48.797Z,10.70
2023-03-15T00:59:10.721Z,10.72
2023-03-15T00:59:34.791Z,10.76
2023-03-15T00:59:58.577Z,10.85
2023-03-15T01:00:24.196Z,10.87
2023-03-15T01:00:47.384Z,10.93
2023-03-15T01:01:14.763Z,10.99
2023-03-15T01:01:44.580Z,11.00
2023-03-15T01:02:06.451Z,11.07
2023-03-15T01:02:28.179Z,11.03
2023-03-15T01:02:55.501Z,10.99
2023-03-15T01:03:20.458Z,10.96
2023-03-15T01:03:55.525Z,10.96
2023-03-15T01:04:51.197Z,11.05
2023-03-15T01:05:59.425Z,11.18
2023-03-15T01:06:30.207Z,11.06
2023-03-15T01:07:07.136Z,11.15
2023-03-15T01:08:06.396Z,11.16
2023-03-15T01:08:44.512Z,11.15
2023-03-15T01:09:48.625Z,11.16
2023-03-15T01:10:20.619Z,11.07
2023-03-15T01:10:43.815Z,11.16
2023-03-15T01:11:13.664Z,10.99
2023-03-15T01:11:37.121Z,11.03
2023-03-15T01:11:59.206Z,11.13
2023-03-15T01:12:20.838Z,11.18
2023-03-15T01:12:53.538Z,11.17
2023-03-15T01:13:15.134Z,11.09
2023-03-15T01:14:23.092Z,11.18
2023-03-15T01:14:45.054Z,11.10
2023-03-15T01:15:08.835Z,10.82
2023-03-15T01:15:30.498Z,10.81
2023-03-15T01:15:54.877Z,10.74
2023-03-15T01:16:16.563Z,10.79
2023-03-15T01:16:38.214Z,10.83
2023-03-15T01:16:59.917Z,10.91
2023-03-15T01:17:22.819Z,10.95
2023-03-15T01:17:44.737Z,10.93
2023-03-15T01:18:06.412Z,10.98
2023-03-15T01:18:29.418Z,10.97
2023-03-15T01:18:53.873Z,10.99
2023-03-15T01:19:16.103Z,11.04
2023-03-15T01:19:37.761Z,11.07
2023-03-15T01:19:59.944Z,11.12
2023-03-15T01:20:21.806Z,10.96
2023-03-15T01:20:46.320Z,11.13
2023-03-15T01:21:10.992Z,11.11
2023-03-15T01:21:32.687Z,11.07
2023-03-15T01:21:54.359Z,10.98
2023-03-15T01:22:16.252Z,10.95
2023-03-15T01:22:38.889Z,10.95
2023-03-15T01:23:01.975Z,10.98
2023-03-15T01:23:24.028Z,10.94
2023-03-15T01:23:45.713Z,10.89
2023-03-15T01:24:13.115Z,10.82
2023-03-15T01:24:34.754Z,10.78
2023-03-15T01:24:59.205Z,10.78
2023-03-15T01:25:20.887Z,10.73
2023-03-15T01:25:43.494Z,10.83
2023-03-15T01:26:07.179Z,10.83
2023-03-15T01:26:29.039Z,10.90
2023-03-15T01:26:51.701Z,10.83
2023-03-15T01:27:13.692Z,10.77
2023-03-15T01:27:36.689Z,10.77
2023-03-15T01:27:58.379Z,10.87
2023-03-15T01:28:19.956Z,10.79
2023-03-15T01:28:42.018Z,10.88
2023-03-15T01:29:04.646Z,10.90
2023-03-15T01:29:28.261Z,10.87
2023-03-15T01:29:50.386Z,10.95
2023-03-15T01:30:12.608Z,10.88
2023-03-15T01:30:36.210Z,10.95
2023-03-15T01:30:59.868Z,11.07
2023-03-15T01:31:23.533Z,11.09
2023-03-15T01:31:45.440Z,11.07
2023-03-15T01:32:08.504Z,11.04
2023-03-15T01:32:30.419Z,10.98
2023-03-15T01:32:52.080Z,10.85
2023-03-15T01:33:14.058Z,10.86
2023-03-15T01:33:36.642Z,10.91
2023-03-15T01:33:59.480Z,10.95
2023-03-15T01:34:23.356Z,10.89
2023-03-15T01:34:44.973Z,10.97
2023-03-15T01:35:07.738Z,10.91
2023-03-15T01:35:30.427Z,11.03
2023-03-15T01:35:59.139Z,11.05
2023-03-15T01:36:21.149Z,11.03
2023-03-15T01:36:42.820Z,11.06
2023-03-15T01:37:05.460Z,11.00
2023-03-15T01:37:34.442Z,11.12
2023-03-15T01:37:56.289Z,11.00
2023-03-15T01:38:18.954Z,11.13
2023-03-15T01:38:40.674Z,11.05
2023-03-15T01:39:03.426Z,11.12
2023-03-15T01:39:33.962Z,11.09
2023-03-15T01:39:57.037Z,11.05
2023-03-15T01:40:19.211Z,11.06
2023-03-15T01:40:42.404Z,11.05
2023-03-15T01:41:04.700Z,11.10
2023-03-15T01:41:28.786Z,11.09
2023-03-15T01:41:51.832Z,11.13
2023-03-15T01:42:13.486Z,11.06
2023-03-15T01:42:51.306Z,10.99
2023-03-15T01:43:20.719Z,10.94
2023-03-15T01:43:47.250Z,10.92
2023-03-15T01:44:13.787Z,10.98
2023-03-15T01:44:56.443Z,10.99
2023-03-15T01:46:06.857Z,10.90
2023-03-15T01:46:34.248Z,10.93
2023-03-15T01:47:06.772Z,10.86
2023-03-15T01:47:32.776Z,10.88
2023-03-15T01:47:54.485Z,10.81
2023-03-15T01:48:17.890Z,10.81
2023-03-15T01:48:44.506Z,10.68
2023-03-15T01:49:09.537Z,10.58
2023-03-15T01:49:34.969Z,10.41
2023-03-15T01:50:03.531Z,10.36
2023-03-15T01:50:25.432Z,10.07
2023-03-15T01:50:47.432Z,9.86
2023-03-15T01:51:16.798Z,10.07
2023-03-15T01:51:43.801Z,10.18
2023-03-15T01:52:10.015Z,10.23
2023-03-15T01:52:52.432Z,10.34
2023-03-15T01:53:14.970Z,10.30
2023-03-15T01:53:40.683Z,10.39
2023-03-15T01:54:06.866Z,10.36
2023-03-15T01:54:32.249Z,10.16
2023-03-15T01:55:01.154Z,10.24
2023-03-15T01:55:24.062Z,10.35
2023-03-15T01:55:59.386Z,10.37
2023-03-15T01:56:30.564Z,10.47
2023-03-15T01:56:58.240Z,10.48
2023-03-15T01:57:24.096Z,10.54
2023-03-15T01:57:49.785Z,10.54
2023-03-15T01:58:13.498Z,10.38
2023-03-15T01:58:41.250Z,10.39
2023-03-15T01:59:08.674Z,10.08
2023-03-15T01:59:33.582Z,10.07
2023-03-15T02:00:03.741Z,9.87
2023-03-15T02:00:35.873Z,9.61
2023-03-15T02:01:03.245Z,9.75
2023-03-15T02:01:27.755Z,9.93
2023-03-15T02:01:52.309Z,10.01
2023-03-15T02:02:15.098Z,9.89
2023-03-15T02:02:46.482Z,10.06
2023-03-15T02:03:18.586Z,10.09
2023-03-15T02:03:47.570Z,9.92
2023-03-15T02:04:16.465Z,9.72
2023-03-15T02:04:46.738Z,9.60
2023-03-15T02:05:13.997Z,9.60
2023-03-15T02:05:45.934Z,9.60
2023-03-15T02:06:11.264Z,9.54
2023-03-15T02:07:00.096Z,9.53
2023-03-15T02:07:27.072Z,9.76
2023-03-15T02:07:50.712Z,9.79
2023-03-15T02:08:17.719Z,9.82
2023-03-15T02:08:47.666Z,9.88
2023-03-15T02:09:15.012Z,9.95
2023-03-15T02:09:51.249Z,9.98
2023-03-15T02:10:17.109Z,10.06
2023-03-15T02:10:44.050Z,10.15
2023-03-15T02:11:06.410Z,10.13
2023-03-15T02:11:29.772Z,10.19
2023-03-15T02:11:52.606Z,10.25
2023-03-15T02:12:14.399Z,10.26
2023-03-15T02:12:40.483Z,10.29
2023-03-15T02:13:04.244Z,10.32
2023-03-15T02:13:28.805Z,10.31
2023-03-15T02:13:55.004Z,10.12
2023-03-15T02:14:17.078Z,10.21
2023-03-15T02:14:40.922Z,10.29
2023-03-15T02:15:07.704Z,10.35
2023-03-15T02:15:32.415Z,10.39
2023-03-15T02:15:56.628Z,10.25
2023-03-15T02:16:29.972Z,10.09
2023-03-15T02:17:00.521Z,10.10
2023-03-15T02:17:34.926Z,10.11
2023-03-15T02:18:00.082Z,10.16
2023-03-15T02:18:22.226Z,10.19
2023-03-15T02:18:48.896Z,10.16
2023-03-15T02:19:22.197Z,10.24
2023-03-15T02:19:53.013Z,10.00
2023-03-15T02:20:27.388Z,10.13
2023-03-15T02:20:57.278Z,10.18
2023-03-15T02:21:32.266Z,10.20
2023-03-15T02:22:02.663Z,10.24
2023-03-15T02:22:37.530Z,10.20
2023-03-15T02:23:04.324Z,10.30
2023-03-15T02:23:28.382Z,10.33
2023-03-15T02:23:59.669Z,10.33
2023-03-15T02:24:32.111Z,10.32
2023-03-15T02:25:03.099Z,10.35
2023-03-15T02:25:37.597Z,10.34
2023-03-15T02:26:09.512Z,10.10
2023-03-15T02:26:42.202Z,10.00
2023-03-15T02:27:04.085Z,9.90
2023-03-15T02:27:30.531Z,9.87
2023-03-15T02:27:52.269Z,9.78
2023-03-15T02:28:17.465Z,9.72
2023-03-15T02:28:40.014Z,9.81
2023-03-15T02:29:01.716Z,9.79
2023-03-15T02:29:26.637Z,9.63
2023-03-15T02:29:48.333Z,9.78
2023-03-15T02:30:12.690Z,9.81
2023-03-15T02:30:35.457Z,9.85
2023-03-15T02:30:58.137Z,9.73
2023-03-15T02:31:20.709Z,9.66
2023-03-15T02:31:45.401Z,9.96
2023-03-15T02:32:08.799Z,10.01
2023-03-15T02:32:31.041Z,9.84
2023-03-15T02:32:52.788Z,9.99
2023-03-15T02:33:20.188Z,9.98
2023-03-15T02:33:44.058Z,10.01
2023-03-15T02:34:07.632Z,10.03
2023-03-15T02:34:29.720Z,10.06
2023-03-15T02:34:52.605Z,10.08
2023-03-15T02:35:23.814Z,10.09
2023-03-15T02:35:47.542Z,10.08
2023-03-15T02:36:20.868Z,10.04
2023-03-15T02:36:43.808Z,10.02
2023-03-15T02:37:06.961Z,9.96
2023-03-15T02:37:28.591Z,9.92
2023-03-15T02:37:51.404Z,9.81
2023-03-15T02:38:13.022Z,9.76
2023-03-15T02:38:34.623Z,9.76
2023-03-15T02:38:56.976Z,9.75
2023-03-15T02:39:21.266Z,9.70
2023-03-15T02:39:42.846Z,9.78
2023-03-15T02:40:17.969Z,9.77
2023-03-15T02:40:40.070Z,9.79
2023-03-15T02:41:03.697Z,9.75
2023-03-15T02:41:29.856Z,9.58
2023-03-15T02:41:54.539Z,9.56
2023-03-15T02:42:17.659Z,9.56
2023-03-15T02:42:42.458Z,9.54
2023-03-15T02:43:08.897Z,9.55
2023-03-15T02:43:32.985Z,9.54
2023-03-15T02:44:00.027Z,9.53
2023-03-15T02:44:26.075Z,9.52
2023-03-15T02:44:49.158Z,9.56
2023-03-15T02:45:12.428Z,9.54
2023-03-15T02:45:37.188Z,9.57
2023-03-15T02:45:59.721Z,9.54
2023-03-15T02:46:22.468Z,9.60
2023-03-15T02:46:47.698Z,9.61
2023-03-15T02:47:13.756Z,9.57
2023-03-15T02:47:35.522Z,9.56
2023-03-15T02:47:57.319Z,9.42
2023-03-15T02:48:21.340Z,9.40
2023-03-15T02:48:44.223Z,9.36
2023-03-15T02:49:08.260Z,9.37
2023-03-15T02:49:32.782Z,9.35
2023-03-15T02:49:55.725Z,9.33
2023-03-15T02:50:17.979Z,9.32
2023-03-15T02:50:39.878Z,9.30
2023-03-15T02:51:03.100Z,9.33
2023-03-15T02:51:29.385Z,9.33
2023-03-15T02:51:52.135Z,9.29
2023-03-15T02:52:14.124Z,9.18
2023-03-15T02:52:35.960Z,9.21
2023-03-15T02:52:59.024Z,9.18
2023-03-15T02:53:20.643Z,9.06
2023-03-15T02:53:43.574Z,9.06
2023-03-15T02:54:05.367Z,8.99
2023-03-15T02:54:27.950Z,8.98
2023-03-15T02:54:49.749Z,8.98
2023-03-15T02:55:11.447Z,9.02
2023-03-15T02:55:33.355Z,9.05
2023-03-15T02:55:56.005Z,9.07
2023-03-15T02:56:17.738Z,9.13
2023-03-15T02:56:39.410Z,9.16
2023-03-15T02:57:01.593Z,9.19
2023-03-15T02:57:24.942Z,9.17
2023-03-15T02:57:50.790Z,9.12
2023-03-15T02:58:16.282Z,9.14
2023-03-15T02:58:51.682Z,9.01
2023-03-15T02:59:36.469Z,9.12
2023-03-15T03:00:17.028Z,9.14
2023-03-15T03:00:53.637Z,9.20
2023-03-15T03:01:21.382Z,8.66
2023-03-15T03:02:08.322Z,9.08
2023-03-15T03:02:33.292Z,8.76
2023-03-15T03:03:01.781Z,9.07
2023-03-15T03:03:27.248Z,9.00
2023-03-15T03:04:02.132Z,8.75
2023-03-15T03:04:29.422Z,8.86
2023-03-15T03:04:53.819Z,9.09
2023-03-15T03:05:21.173Z,8.98
2023-03-15T03:05:48.892Z,8.69
2023-03-15T03:06:18.354Z,8.99
2023-03-15T03:06:49.417Z,9.18
2023-03-15T03:07:21.100Z,9.21
2023-03-15T03:07:57.497Z,9.09
2023-03-15T03:08:22.817Z,9.02
2023-03-15T03:08:47.153Z,9.16
2023-03-15T03:09:11.219Z,9.19
2023-03-15T03:09:34.716Z,9.22
2023-03-15T03:09:56.960Z,9.25
2023-03-15T03:10:22.037Z,9.23
2023-03-15T03:10:51.404Z,9.30
2023-03-15T03:11:13.675Z,9.34
2023-03-15T03:11:35.807Z,9.35
2023-03-15T03:11:57.679Z,9.35
2023-03-15T03:12:20.662Z,9.39
2023-03-15T03:12:43.182Z,9.36
2023-03-15T03:13:06.205Z,9.41
2023-03-15T03:13:31.013Z,9.47
2023-03-15T03:13:53.743Z,9.48
2023-03-15T03:14:15.906Z,9.55
2023-03-15T03:14:37.627Z,9.60
2023-03-15T03:15:05.925Z,9.63
2023-03-15T03:15:28.572Z,9.64
2023-03-15T03:15:58.393Z,9.66
2023-03-15T03:16:23.155Z,9.58
2023-03-15T03:16:45.299Z,9.59
2023-03-15T03:17:08.557Z,9.54
2023-03-15T03:17:30.434Z,9.54
2023-03-15T03:17:52.031Z,9.59
2023-03-15T03:18:13.860Z,9.25
2023-03-15T03:18:38.107Z,9.54
2023-03-15T03:19:01.326Z,9.63
2023-03-15T03:19:26.042Z,9.65
2023-03-15T03:19:48.764Z,9.68
2023-03-15T03:20:15.608Z,9.69
2023-03-15T03:20:40.992Z,9.71
2023-03-15T03:21:04.178Z,9.48
2023-03-15T03:21:25.867Z,9.48
2023-03-15T03:21:48.776Z,9.64
2023-03-15T03:22:13.519Z,9.63
2023-03-15T03:22:36.084Z,9.58
2023-03-15T03:22:58.491Z,9.53
2023-03-15T03:23:22.262Z,9.43
2023-03-15T03:23:46.207Z,9.61
2023-03-15T03:24:10.024Z,9.64
2023-03-15T03:24:32.305Z,9.62
2023-03-15T03:24:57.222Z,9.60
2023-03-15T03:25:19.137Z,9.58
2023-03-15T03:25:42.343Z,9.59
2023-03-15T03:26:12.090Z,9.58
2023-03-15T03:26:35.143Z,9.42
2023-03-15T03:26:57.961Z,9.56
2023-03-15T03:27:22.702Z,9.56
2023-03-15T03:27:44.535Z,9.35
2023-03-15T03:28:10.800Z,9.40
2023-03-15T03:28:33.150Z,9.41
2023-03-15T03:28:56.275Z,9.41
2023-03-15T03:29:20.092Z,9.44
2023-03-15T03:29:45.232Z,9.42
2023-03-15T03:30:10.178Z,9.46
2023-03-15T03:30:36.311Z,9.46
2023-03-15T03:30:58.490Z,9.47
2023-03-15T03:31:23.986Z,9.51
2023-03-15T03:31:47.108Z,9.33
2023-03-15T03:32:09.698Z,9.42
2023-03-15T03:32:32.744Z,9.47
2023-03-15T03:32:55.507Z,9.52
2023-03-15T03:33:17.233Z,9.50
2023-03-15T03:33:42.281Z,9.59
2023-03-15T03:34:04.048Z,9.59
2023-03-15T03:34:26.639Z,9.68
2023-03-15T03:34:48.557Z,9.64
2023-03-15T03:35:16.051Z,9.63
2023-03-15T03:35:37.945Z,9.64
2023-03-15T03:36:04.002Z,9.47
2023-03-15T03:36:25.886Z,9.48
2023-03-15T03:36:48.484Z,9.59
2023-03-15T03:37:15.107Z,9.52
2023-03-15T03:37:54.614Z,9.50
2023-03-15T03:38:24.453Z,9.55
2023-03-15T03:38:51.473Z,9.61
2023-03-15T03:39:13.232Z,9.63
2023-03-15T03:39:35.767Z,9.63
2023-03-15T03:39:59.669Z,9.51
2023-03-15T03:40:21.461Z,9.66
2023-03-15T03:40:43.153Z,9.74
2023-03-15T03:41:05.414Z,9.77
2023-03-15T03:41:29.372Z,9.80
2023-03-15T03:41:51.291Z,9.80
2023-03-15T03:42:14.345Z,9.82
2023-03-15T03:42:36.108Z,9.87
2023-03-15T03:42:58.632Z,9.92
2023-03-15T03:43:22.630Z,9.81
2023-03-15T03:43:44.542Z,9.81
2023-03-15T03:44:06.340Z,9.70
2023-03-15T03:44:28.204Z,9.63
2023-03-15T03:44:50.619Z,9.49
2023-03-15T03:45:16.387Z,9.51
2023-03-15T03:45:40.187Z,9.51
2023-03-15T03:46:03.752Z,9.47
2023-03-15T03:46:28.452Z,9.51
2023-03-15T03:46:51.613Z,9.48
2023-03-15T03:47:13.311Z,9.52
2023-03-15T03:47:35.015Z,9.36
2023-03-15T03:47:56.674Z,9.35
2023-03-15T03:48:19.279Z,9.36
2023-03-15T03:48:40.994Z,9.34
2023-03-15T03:49:02.914Z,9.42
2023-03-15T03:49:24.847Z,9.43
2023-03-15T03:49:47.524Z,9.38
2023-03-15T03:50:10.802Z,9.44
2023-03-15T03:50:32.517Z,9.48
2023-03-15T03:50:57.403Z,9.42
2023-03-15T03:51:20.068Z,9.41
2023-03-15T03:51:41.618Z,9.43
2023-03-15T03:52:04.707Z,9.41
2023-03-15T03:52:28.984Z,9.24
2023-03-15T03:52:59.528Z,9.22
2023-03-15T03:53:26.307Z,9.25
2023-03-15T03:53:47.932Z,9.26
2023-03-15T03:54:09.557Z,9.28
2023-03-15T03:54:32.192Z,9.25
2023-03-15T03:54:56.378Z,9.25
2023-03-15T03:55:18.574Z,9.30
2023-03-15T03:55:42.627Z,9.33
2023-03-15T03:56:05.178Z,9.26
2023-03-15T03:56:26.869Z,9.30
2023-03-15T03:56:50.797Z,9.31
2023-03-15T03:57:12.746Z,9.30
2023-03-15T03:57:35.929Z,9.25
2023-03-15T03:58:00.206Z,9.26
2023-03-15T03:58:53.254Z,9.35
2023-03-15T03:59:24.182Z,9.38
2023-03-15T03:59:54.043Z,9.41
2023-03-15T04:00:17.781Z,9.24
2023-03-15T04:00:40.073Z,9.30
2023-03-15T04:01:04.934Z,9.30
2023-03-15T04:01:32.188Z,9.36
2023-03-15T04:01:54.150Z,9.33
2023-03-15T04:02:15.900Z,9.23
2023-03-15T04:02:43.779Z,9.22
2023-03-15T04:03:08.477Z,9.23
2023-03-15T04:03:33.264Z,9.26
2023-03-15T04:04:01.472Z,9.29
2023-03-15T04:04:26.216Z,9.34
2023-03-15T04:04:50.302Z,9.37
2023-03-15T04:05:14.035Z,9.28
2023-03-15T04:05:36.228Z,9.25
2023-03-15T04:05:59.626Z,9.21
2023-03-15T04:06:24.147Z,9.22
2023-03-15T04:06:46.202Z,9.04
2023-03-15T04:07:09.928Z,9.10
2023-03-15T04:07:34.276Z,9.12
2023-03-15T04:07:56.895Z,8.96
2023-03-15T04:08:19.014Z,9.03
2023-03-15T04:08:41.030Z,9.02
2023-03-15T04:09:04.981Z,9.06
2023-03-15T04:09:37.217Z,9.06
2023-03-15T04:09:59.691Z,9.05
2023-03-15T04:10:26.963Z,9.08
2023-03-15T04:10:53.129Z,8.98
2023-03-15T04:11:17.538Z,9.01
2023-03-15T04:11:43.830Z,9.05
2023-03-15T04:12:06.340Z,9.08
2023-03-15T04:12:29.272Z,9.12
2023-03-15T04:12:52.474Z,9.18
2023-03-15T04:13:14.348Z,9.17
2023-03-15T04:13:36.050Z,9.17
2023-03-15T04:14:02.541Z,9.17
2023-03-15T04:14:25.696Z,9.20
2023-03-15T04:14:48.283Z,9.15
2023-03-15T04:15:11.937Z,9.16
2023-03-15T04:15:35.056Z,9.20
2023-03-15T04:15:57.520Z,9.24
2023-03-15T04:16:24.689Z,9.17
2023-03-15T04:16:56.399Z,9.21
2023-03-15T04:17:19.318Z,9.26
2023-03-15T04:17:40.967Z,9.32
2023-03-15T04:18:05.683Z,9.34
2023-03-15T04:18:34.552Z,9.45
2023-03-15T04:18:57.245Z,9.47
2023-03-15T04:19:19.494Z,9.49
2023-03-15T04:19:41.109Z,9.55
2023-03-15T04:20:06.932Z,9.52
2023-03-15T04:20:35.783Z,9.58
2023-03-15T04:20:58.151Z,9.59
2023-03-15T04:21:23.009Z,9.63
2023-03-15T04:21:52.990Z,9.62
2023-03-15T04:22:22.662Z,9.62
2023-03-15T04:23:15.388Z,9.58
2023-03-15T04:23:52.678Z,9.62
2023-03-15T04:24:42.174Z,9.54
2023-03-15T04:25:09.942Z,9.73
2023-03-15T04:25:49.832Z,9.67
2023-03-15T04:26:28.529Z,9.77
2023-03-15T04:27:18.197Z,9.78
2023-03-15T04:27:59.222Z,9.79
2023-03-15T04:28:39.038Z,9.73
2023-03-15T04:29:31.025Z,9.85
2023-03-15T04:30:12.782Z,9.71
2023-03-15T04:30:43.682Z,9.72
2023-03-15T04:31:27.471Z,9.65
2023-03-15T04:32:09.479Z,9.72
2023-03-15T04:32:42.568Z,9.73
2023-03-15T04:33:12.208Z,9.62
2023-03-15T04:33:55.273Z,9.43
2023-03-15T04:34:43.632Z,9.37
2023-03-15T04:35:29.941Z,9.27
2023-03-15T04:36:08.258Z,9.31
2023-03-15T04:36:54.656Z,9.27
2023-03-15T04:37:33.853Z,9.36
2023-03-15T04:38:10.003Z,9.33
2023-03-15T04:38:51.837Z,9.40
2023-03-15T04:39:30.663Z,9.44
2023-03-15T04:40:19.646Z,9.48
2023-03-15T04:40:48.878Z,9.54
2023-03-15T04:41:30.062Z,9.62
2023-03-15T04:42:00.851Z,9.66
2023-03-15T04:42:41.050Z,9.65
2023-03-15T04:43:10.933Z,9.72
2023-03-15T04:43:44.910Z,9.76
2023-03-15T04:44:30.420Z,9.73
2023-03-15T04:45:12.345Z,9.77
2023-03-15T04:46:03.974Z,9.79
2023-03-15T04:46:36.030Z,9.84
2023-03-15T04:47:20.675Z,9.89
2023-03-15T04:47:52.774Z,9.88
2023-03-15T04:48:32.429Z,9.92
2023-03-15T04:49:15.266Z,9.90
2023-03-15T04:49:55.305Z,9.89
2023-03-15T04:50:26.061Z,9.95
2023-03-15T04:51:10.605Z,9.95
2023-03-15T04:51:49.287Z,10.01
2023-03-15T04:52:22.655Z,10.03
2023-03-15T04:53:07.878Z,10.08
2023-03-15T04:53:52.132Z,10.04
2023-03-15T04:54:23.343Z,10.07
2023-03-15T04:54:52.761Z,10.09
2023-03-15T04:55:37.171Z,10.01
2023-03-15T04:56:31.269Z,10.09
2023-03-15T04:57:07.107Z,10.08
2023-03-15T04:57:47.463Z,10.05
2023-03-15T04:58:28.739Z,10.04
2023-03-15T04:59:10.666Z,10.01
2023-03-15T05:00:04.181Z,9.96
2023-03-15T05:00:34.598Z,9.91
2023-03-15T05:01:02.020Z,9.99
2023-03-15T05:01:44.588Z,9.92
2023-03-15T05:02:23.358Z,9.94
2023-03-15T05:02:56.451Z,9.94
2023-03-15T05:03:34.424Z,9.95
2023-03-15T05:04:24.668Z,9.93
2023-03-15T05:05:09.006Z,9.99
2023-03-15T05:05:49.667Z,9.96
2023-03-15T05:06:27.615Z,9.96
2023-03-15T05:07:00.523Z,9.95
2023-03-15T05:07:45.430Z,9.97
2023-03-15T05:08:27.407Z,9.89
2023-03-15T05:09:07.615Z,10.00
2023-03-15T05:09:46.620Z,9.98
2023-03-15T05:10:31.612Z,9.87
2023-03-15T05:11:12.636Z,9.98
2023-03-15T05:11:47.387Z,10.00
2023-03-15T05:12:25.617Z,9.95
2023-03-15T05:13:07.123Z,9.97
2023-03-15T05:13:52.002Z,10.00
2023-03-15T05:14:34.191Z,10.01
2023-03-15T05:14:56.124Z,10.01
2023-03-15T05:15:37.669Z,9.96
2023-03-15T05:16:10.770Z,9.98
2023-03-15T05:16:44.469Z,9.99
2023-03-15T05:17:15.382Z,9.95
2023-03-15T05:17:56.672Z,9.95
2023-03-15T05:18:38.671Z,9.96
2023-03-15T05:19:04.538Z,9.99
2023-03-15T05:19:53.993Z,10.01
2023-03-15T05:20:38.253Z,10.01
2023-03-15T05:21:14.483Z,10.06
2023-03-15T05:21:48.501Z,10.08
2023-03-15T05:22:49.964Z,10.09
2023-03-15T05:23:27.296Z,10.08
2023-03-15T05:23:58.838Z,10.04
2023-03-15T05:24:25.855Z,10.04
2023-03-15T05:25:01.091Z,10.07
2023-03-15T05:25:35.180Z,10.10
2023-03-15T05:25:58.011Z,10.09
2023-03-15T05:26:39.053Z,10.09
2023-03-15T05:27:04.390Z,10.12
2023-03-15T05:27:33.889Z,10.11
2023-03-15T05:28:05.497Z,10.11
2023-03-15T05:28:40.520Z,10.05
2023-03-15T05:29:09.689Z,10.08
2023-03-15T05:29:54.432Z,10.06
2023-03-15T05:30:32.193Z,10.09
2023-03-15T05:31:02.615Z,10.04
2023-03-15T05:31:44.176Z,10.11
2023-03-15T05:32:26.932Z,10.12
2023-03-15T05:33:05.999Z,10.10
2023-03-15T05:34:04.360Z,10.10
2023-03-15T05:34:55.380Z,10.11
2023-03-15T05:35:38.598Z,9.85
2023-03-15T05:36:25.644Z,10.09
2023-03-15T05:36:55.655Z,10.05
2023-03-15T05:37:26.963Z,10.09
2023-03-15T05:38:27.214Z,10.06
2023-03-15T05:39:17.734Z,10.06
2023-03-15T05:39:57.567Z,10.05
2023-03-15T05:40:39.544Z,10.06
2023-03-15T05:41:13.640Z,9.86
2023-03-15T05:42:04.993Z,10.07
2023-03-15T05:42:46.698Z,10.06
2023-03-15T05:43:31.931Z,10.10
2023-03-15T05:44:23.006Z,10.10
2023-03-15T05:44:57.328Z,10.06
2023-03-15T05:45:39.820Z,10.10
2023-03-15T05:46:22.650Z,10.09
2023-03-15T05:46:50.308Z,10.12
2023-03-15T05:47:41.904Z,10.14
2023-03-15T05:48:18.047Z,10.16
2023-03-15T05:49:14.845Z,10.14
2023-03-15T05:49:47.356Z,10.13
2023-03-15T05:50:18.776Z,10.14
2023-03-15T05:50:51.892Z,10.13
2023-03-15T05:51:22.358Z,10.15
2023-03-15T05:52:14.084Z,10.09
2023-03-15T05:52:58.352Z,10.12
2023-03-15T05:53:29.181Z,10.12
2023-03-15T05:54:11.408Z,10.13
2023-03-15T05:55:04.269Z,10.14
2023-03-15T05:55:39.896Z,10.11
2023-03-15T05:56:32.950Z,10.16
2023-03-15T05:57:13.164Z,10.17
2023-03-15T05:57:53.566Z,10.17
2023-03-15T05:58:26.956Z,10.20
2023-03-15T05:59:09.835Z,10.20
2023-03-15T06:00:02.175Z,10.19
2023-03-15T06:00:36.661Z,10.15
2023-03-15T06:01:07.092Z,10.17
2023-03-15T06:01:54.907Z,10.17
2023-03-15T06:02:24.093Z,10.17
2023-03-15T06:03:05.722Z,10.20
2023-03-15T06:03:36.438Z,10.21
2023-03-15T06:04:07.531Z,10.24
2023-03-15T06:04:30.499Z,10.25
2023-03-15T06:04:53.041Z,10.26
2023-03-15T06:05:19.419Z,10.28
2023-03-15T06:05:41.951Z,10.30
2023-03-15T06:06:09.327Z,10.34
2023-03-15T06:06:35.909Z,10.36
2023-03-15T06:06:59.764Z,10.31
2023-03-15T06:07:21.866Z,10.35
2023-03-15T06:07:43.503Z,10.33
2023-03-15T06:08:10.138Z,10.30
2023-03-15T06:08:36.016Z,10.29
2023-03-15T06:08:57.768Z,10.25
2023-03-15T06:09:20.444Z,10.24
2023-03-15T06:09:42.437Z,10.27
2023-03-15T06:10:05.616Z,10.28
2023-03-15T06:10:27.324Z,10.29
2023-03-15T06:10:52.118Z,10.34
2023-03-15T06:11:13.827Z,10.29
2023-03-15T06:11:35.652Z,10.35